weather station
Area: 11014 km2
The highest point: Tok (865 m.s.l.)
Total stations: 46
Stations online: 42
Stations offline: 4
Current weather
-3°C

Meteorological map - weather stations in Středočeský

. The meteorological maps show weather information from WARIO weather stations

Weather stations Středočeský

 UpdatesNameStatusTemperatureHumidityWind speedWind direction
22.1.2019 14:37Jílové u Prahy - Borek-2.2 °C66.0 %0.9 m/s NE
22.1.2019 14:36Králův Dvůr-2.5 °C70.9 %1.3 m/s N
22.1.2019 14:37Chotětov-3.6 °C84.6 %1.2 m/s E
22.1.2019 14:37Dolní Jirčany-4.0 °C77.1 %1.3 m/s NE
22.1.2019 14:36Davle-2.8 °C71.4 %0.9 m/s NE
22.1.2019 14:37Opolany-1.0 °C65.3 %0.0 m/s E
22.1.2019 14:35Holubice-5.0 °C99.9 %1.7 m/s S
22.1.2019 14:36Hostín u Vojkovic-4.0 °C96.1 %0.6 m/s E
22.1.2019 14:36Hovorčovice-4.5 °C88.5 %0.9 m/s N
22.1.2019 14:37Sedlčany0.6 °C58.6 %0.8 m/s E
22.1.2019 14:37Mělník-2.9 °C81.6 %1.1 m/s NE
22.1.2019 14:36Jiřetice-1.3 °C63.8 %0.0 m/s E
22.1.2019 14:37Kojetice-4.0 °C88.2 %0.0 m/s E
22.1.2019 14:37Krásná Hora nad Vltavou-3.0 °C56.5 %1.0 m/s SE
22.1.2019 14:37Ledečky-2.0 °C78.6 %1.6 m/s S
22.1.2019 14:37Libeř-0.9 °C65.0 %0.0 m/s NW
22.1.2019 14:36Sazená-6.3 °C100.0 %0.0 m/s E
22.1.2019 14:37Malý Újezd-4.0 °C90.0 %0.0 m/s SE
22.1.2019 14:36Zdice0.0 °C61.1 %1.6 m/s N
22.1.2019 14:37Červený Újezd-4.8 °C81.6 %1.1 m/s W
22.1.2019 14:36Mělník-2.7 °C79.6 %0.0 m/s E
22.1.2019 14:37Jince-1.7 °C65.7 %2.6 m/s SE
22.1.2019 14:37Srby-4.6 °C80.9 %2.1 m/s E
22.1.2019 14:36Kralupy nad Vltavou-4.0 °C88.8 %0.8 m/s SE
22.1.2019 14:37Mrač-1.4 °C64.6 %1.4 m/s E
22.1.2019 14:37Velvary-3.3 °C82.7 %1.5 m/s E
22.1.2019 14:37Dolní Jirčany-3.7 °C92.9 %1.7 m/s E
22.1.2019 14:36Mladá Boleslav-3.0 °C99.5 %0.0 m/s N
22.1.2019 14:36Líbeznice-5.2 °C92.4 %1.8 m/s E
22.1.2019 14:36Mratín-3.0 °C100.0 %0.0 m/s E
22.1.2019 14:37Mšecké Žehrovice-5.3 °C85.2 %0.7 m/s NE
22.1.2019 14:37Odolena voda-4.8 °C99.4 %2.0 m/s E
22.1.2019 14:37Oseček3.1 °C75.7 %0.6 m/s NE
22.1.2019 14:07Pátek-0.7 °C68.8 %0.0 m/s E
21.1.2019 03:59Husinec-Řež-8.8 °C97.8 %0.0 m/s S
22.1.2019 14:36Semice-3.5 °C85.4 %0.8 m/s W
22.1.2019 14:37Slaný-5.8 °C98.2 %0.9 m/s N
22.1.2019 14:37Svojetice-5.2 °C78.0 %1.6 m/s SE
22.1.2019 14:36Kosmonosy-3.3 °C84.1 %1.2 m/s SW
22.1.2019 14:37Toušice-3.4 °C73.7 %1.0 m/s SE
22.1.2019 14:36Srby-4.3 °C83.7 %1.4 m/s SE
22.1.2019 14:12Vestec-3.5 °C77.9 %0.6 m/s SW
1.1.2019 19:45Nebřich3.2 °C94.1 %0.0 m/s W
22.1.2019 14:36Vrbčany-4.1 °C83.0 %1.0 m/s NE
22.1.2019 14:37Všetaty-4.2 °C91.5 %1.2 m/s SE
22.1.2019 14:37Zibohlavy-4.4 °C95.6 %0.0 m/s E
Email notifications
Enter your email address to subscribe to notifications about news at warioweather.com. Your email address will not be used for any purpose other than sending these emails and will not be provided to any third party. The subscription can be ended at any time.
All data are only indicative. The portal administrator has no responsibility for potentially incorrect data and related consequences. Publishing or further sharing of content from www.warioweather.com is only allowed with written consent from WANET s.r.o.